Macquarie Island, Australia
Current Conditions -  °F | °C
As of 3:30 AM on Sunday 21 Dec 2014 (Local Time) from YMHB Reporting Station
Broken Clouds Broken Clouds  
Wind Chill: 55°   Ceiling: 2800
Heat Index: 55°   Visibility: 6mi
Dew Point: 46°   Wind: 5mph
Humidity: 72%   Direction: 80°E
Pressure: 29.94"   Gusts: NA
Location:  54.48°S, 158.95°E
Report Text: YMHB 201630Z 08004KT 9999 FEW020 BKN028 13/08 Q1014
Loading
Personal Weather Stations






























Interactive Weather Map New forecast layout! Learn more

10-Day Weather Forecast

Advertisements
Track Severe Weather on mobile